Marshfield, Wisconsin
Current Conditions -  °F | °C
As of 6:54 AM on Saturday 25 Oct 2014 (Local Time) from KMFI Reporting Station
Clear Clear  
Wind Chill: 44°   Ceiling: Unl
Heat Index: 48°   Visibility: 10mi
Dew Point: 42°   Wind: 8mph
Humidity: 80%   Direction: 280°W
Pressure: 29.89"   Gusts: NA
Location:  44.67°N, 90.17°W
Report Text: KMFI 251154Z AUTO 28007KT 10SM CLR 09/06 A2989 RMK AO2 SLP124 T00890056 10133 20089 51007
Loading
Personal Weather Stations






























Interactive Weather Map
Tropical Storm Tracking
New forecast layout! Learn more

10-Day Weather Forecast

Advertisements
Track Severe Weather on mobile